sensor_id;sensor_type;location;lat;lon;timestamp;pressure;altitude;pressure_sealevel;temperature;humidity
3960;BME280;1994;48.640;8.894;2022-09-29T00:00:14;94678.81;;;8.05;99.57
3960;BME280;1994;48.640;8.894;2022-09-29T00:02:40;94677.53;;;8.07;99.95
3960;BME280;1994;48.640;8.894;2022-09-29T00:05:07;94671.09;;;8.10;100.00
3960;BME280;1994;48.640;8.894;2022-09-29T00:07:33;94677.28;;;8.14;100.00
3960;BME280;1994;48.640;8.894;2022-09-29T00:09:59;94675.50;;;8.19;100.00
3960;BME280;1994;48.640;8.894;2022-09-29T00:12:25;94676.59;;;8.23;99.72
3960;BME280;1994;48.640;8.894;2022-09-29T00:14:51;94671.16;;;8.20;99.84
3960;BME280;1994;48.640;8.894;2022-09-29T00:17:17;94663.44;;;8.25;99.95
3960;BME280;1994;48.640;8.894;2022-09-29T00:19:43;94666.00;;;8.25;99.53
3960;BME280;1994;48.640;8.894;2022-09-29T00:22:09;94659.31;;;8.29;99.42
3960;BME280;1994;48.640;8.894;2022-09-29T00:24:35;94676.34;;;8.25;99.47
3960;BME280;1994;48.640;8.894;2022-09-29T00:27:01;94661.31;;;8.17;100.00
3960;BME280;1994;48.640;8.894;2022-09-29T00:29:27;94657.19;;;8.16;100.00
3960;BME280;1994;48.640;8.894;2022-09-29T00:31:53;94658.22;;;8.15;100.00
3960;BME280;1994;48.640;8.894;2022-09-29T00:34:19;94664.44;;;8.19;100.00
3960;BME280;1994;48.640;8.894;2022-09-29T00:36:45;94671.34;;;8.03;100.00
3960;BME280;1994;48.640;8.894;2022-09-29T00:39:11;94670.06;;;8.11;100.00
3960;BME280;1994;48.640;8.894;2022-09-29T00:41:39;94668.53;;;8.15;100.00
3960;BME280;1994;48.640;8.894;2022-09-29T00:47:14;94660.34;;;8.23;100.00
3960;BME280;1994;48.640;8.894;2022-09-29T00:55:05;94656.25;;;8.37;100.00
3960;BME280;1994;48.640;8.894;2022-09-29T00:57:48;94644.63;;;8.39;100.00
3960;BME280;1994;48.640;8.894;2022-09-29T01:00:15;94657.28;;;8.41;100.00
3960;BME280;1994;48.640;8.894;2022-09-29T01:03:11;94647.22;;;8.44;100.00
3960;BME280;1994;48.640;8.894;2022-09-29T01:05:53;94643.88;;;8.49;100.00
3960;BME280;1994;48.640;8.894;2022-09-29T01:08:37;94649.03;;;8.49;100.00
3960;BME280;1994;48.640;8.894;2022-09-29T01:11:05;94648.28;;;8.48;100.00
3960;BME280;1994;48.640;8.894;2022-09-29T01:13:32;94642.84;;;8.55;100.00
3960;BME280;1994;48.640;8.894;2022-09-29T01:15:59;94646.47;;;8.54;100.00
3960;BME280;1994;48.640;8.894;2022-09-29T01:18:25;94640.53;;;8.53;100.00
3960;BME280;1994;48.640;8.894;2022-09-29T01:21:42;94636.66;;;8.46;100.00
3960;BME280;1994;48.640;8.894;2022-09-29T01:39:01;94642.31;;;8.38;100.00
3960;BME280;1994;48.640;8.894;2022-09-29T01:47:11;94645.91;;;8.32;100.00
3960;BME280;1994;48.640;8.894;2022-09-29T01:52:52;94650.03;;;8.23;100.00
3960;BME280;1994;48.640;8.894;2022-09-29T01:55:24;94645.81;;;8.17;100.00
3960;BME280;1994;48.640;8.894;2022-09-29T01:57:59;94646.16;;;8.20;100.00
3960;BME280;1994;48.640;8.894;2022-09-29T02:00:29;94652.63;;;8.28;100.00
3960;BME280;1994;48.640;8.894;2022-09-29T02:03:14;94652.09;;;8.31;100.00
3960;BME280;1994;48.640;8.894;2022-09-29T02:06:11;94646.94;;;8.31;100.00
3960;BME280;1994;48.640;8.894;2022-09-29T02:08:57;94647.19;;;8.34;100.00
3960;BME280;1994;48.640;8.894;2022-09-29T02:11:25;94650.56;;;8.35;100.00
3960;BME280;1994;48.640;8.894;2022-09-29T02:14:24;94649.53;;;8.36;100.00
3960;BME280;1994;48.640;8.894;2022-09-29T02:17:02;94647.22;;;8.44;100.00
3960;BME280;1994;48.640;8.894;2022-09-29T02:19:33;94650.06;;;8.48;100.00
3960;BME280;1994;48.640;8.894;2022-09-29T02:22:01;94657.06;;;8.47;100.00
3960;BME280;1994;48.640;8.894;2022-09-29T02:24:26;94657.31;;;8.51;100.00
3960;BME280;1994;48.640;8.894;2022-09-29T02:26:53;94653.16;;;8.55;100.00
3960;BME280;1994;48.640;8.894;2022-09-29T02:29:19;94658.63;;;8.58;100.00
3960;BME280;1994;48.640;8.894;2022-09-29T02:31:46;94657.84;;;8.63;100.00
3960;BME280;1994;48.640;8.894;2022-09-29T02:34:16;94657.31;;;8.66;100.00
3960;BME280;1994;48.640;8.894;2022-09-29T02:42:59;94650.88;;;8.53;100.00
3960;BME280;1994;48.640;8.894;2022-09-29T02:48:43;94643.38;;;8.52;100.00
3960;BME280;1994;48.640;8.894;2022-09-29T02:51:41;94643.88;;;8.44;100.00
3960;BME280;1994;48.640;8.894;2022-09-29T03:00:14;94632.53;;;8.65;100.00
3960;BME280;1994;48.640;8.894;2022-09-29T03:02:42;94627.13;;;8.66;100.00
3960;BME280;1994;48.640;8.894;2022-09-29T03:05:15;94632.25;;;8.51;100.00
3960;BME280;1994;48.640;8.894;2022-09-29T03:07:42;94632.25;;;8.51;100.00
3960;BME280;1994;48.640;8.894;2022-09-29T03:10:09;94634.09;;;8.56;100.00
3960;BME280;1994;48.640;8.894;2022-09-29T03:12:36;94625.31;;;8.57;100.00
3960;BME280;1994;48.640;8.894;2022-09-29T03:15:03;94625.81;;;8.59;100.00
3960;BME280;1994;48.640;8.894;2022-09-29T03:17:29;94622.75;;;8.62;100.00
3960;BME280;1994;48.640;8.894;2022-09-29T03:19:55;94627.38;;;8.65;100.00
3960;BME280;1994;48.640;8.894;2022-09-29T03:22:22;94625.34;;;8.67;100.00
3960;BME280;1994;48.640;8.894;2022-09-29T03:24:48;94616.03;;;8.71;100.00
3960;BME280;1994;48.640;8.894;2022-09-29T03:27:14;94611.91;;;8.65;100.00
3960;BME280;1994;48.640;8.894;2022-09-29T03:29:40;94621.47;;;8.64;100.00
3960;BME280;1994;48.640;8.894;2022-09-29T03:32:06;94615.50;;;8.64;100.00
3960;BME280;1994;48.640;8.894;2022-09-29T03:34:33;94610.09;;;8.60;100.00
3960;BME280;1994;48.640;8.894;2022-09-29T03:36:59;94604.69;;;8.57;100.00
3960;BME280;1994;48.640;8.894;2022-09-29T03:39:25;94616.53;;;8.58;100.00
3960;BME280;1994;48.640;8.894;2022-09-29T03:41:51;94608.31;;;8.61;100.00
3960;BME280;1994;48.640;8.894;2022-09-29T03:44:17;94606.72;;;8.65;99.79
3960;BME280;1994;48.640;8.894;2022-09-29T03:46:43;94600.03;;;8.64;99.48
3960;BME280;1994;48.640;8.894;2022-09-29T03:49:10;94599.53;;;8.62;99.34
3960;BME280;1994;48.640;8.894;2022-09-29T03:51:37;94599.78;;;8.60;99.38
3960;BME280;1994;48.640;8.894;2022-09-29T03:54:04;94605.44;;;8.57;99.16
3960;BME280;1994;48.640;8.894;2022-09-29T03:56:30;94612.91;;;8.54;99.08
3960;BME280;1994;48.640;8.894;2022-09-29T03:58:56;94616.53;;;8.48;98.75
3960;BME280;1994;48.640;8.894;2022-09-29T04:01:22;94626.59;;;8.44;99.20
3960;BME280;1994;48.640;8.894;2022-09-29T04:03:47;94622.72;;;8.42;99.14
3960;BME280;1994;48.640;8.894;2022-09-29T04:06:13;94620.66;;;8.34;99.54
3960;BME280;1994;48.640;8.894;2022-09-29T04:08:39;94620.66;;;8.34;99.75
3960;BME280;1994;48.640;8.894;2022-09-29T04:11:05;94613.91;;;8.33;99.80
3960;BME280;1994;48.640;8.894;2022-09-29T04:13:31;94614.44;;;8.30;99.71
3960;BME280;1994;48.640;8.894;2022-09-29T04:16:02;94615.41;;;8.19;99.82
3960;BME280;1994;48.640;8.894;2022-09-29T04:18:28;94609.47;;;8.13;99.79
3960;BME280;1994;48.640;8.894;2022-09-29T04:20:54;94605.59;;;8.11;99.66
3960;BME280;1994;48.640;8.894;2022-09-29T04:23:24;94607.13;;;8.02;99.42
3960;BME280;1994;48.640;8.894;2022-09-29T04:25:49;94607.13;;;8.02;99.20
3960;BME280;1994;48.640;8.894;2022-09-29T04:28:15;94617.44;;;8.02;99.09
3960;BME280;1994;48.640;8.894;2022-09-29T04:30:41;94621.06;;;8.01;99.18
3960;BME280;1994;48.640;8.894;2022-09-29T04:33:07;94623.03;;;7.84;99.16
3960;BME280;1994;48.640;8.894;2022-09-29T04:35:32;94624.25;;;7.61;99.00
3960;BME280;1994;48.640;8.894;2022-09-29T04:37:58;94622.72;;;7.65;98.95
3960;BME280;1994;48.640;8.894;2022-09-29T04:40:25;94624.53;;;7.70;98.89
3960;BME280;1994;48.640;8.894;2022-09-29T04:42:51;94627.59;;;7.67;98.72
3960;BME280;1994;48.640;8.894;2022-09-29T04:45:17;94616.25;;;7.58;99.00
3960;BME280;1994;48.640;8.894;2022-09-29T04:47:42;94619.31;;;7.55;99.07
3960;BME280;1994;48.640;8.894;2022-09-29T04:50:08;94624.97;;;7.57;99.33
3960;BME280;1994;48.640;8.894;2022-09-29T04:52:35;94620.38;;;7.59;98.89
3960;BME280;1994;48.640;8.894;2022-09-29T04:55:02;94622.94;;;7.59;98.93
3960;BME280;1994;48.640;8.894;2022-09-29T04:57:28;94626.00;;;7.56;98.40
3960;BME280;1994;48.640;8.894;2022-09-29T04:59:54;94624.94;;;7.47;98.98
3960;BME280;1994;48.640;8.894;2022-09-29T05:02:21;94633.69;;;7.46;99.44
3960;BME280;1994;48.640;8.894;2022-09-29T05:04:46;94627.50;;;7.42;99.59
3960;BME280;1994;48.640;8.894;2022-09-29T05:07:13;94628.03;;;7.49;99.58
3960;BME280;1994;48.640;8.894;2022-09-29T05:09:39;94629.84;;;7.53;99.50
3960;BME280;1994;48.640;8.894;2022-09-29T05:12:05;94626.53;;;7.58;98.88
3960;BME280;1994;48.640;8.894;2022-09-29T05:14:31;94631.44;;;7.54;98.24
3960;BME280;1994;48.640;8.894;2022-09-29T05:16:57;94632.94;;;7.50;98.09
3960;BME280;1994;48.640;8.894;2022-09-29T05:19:24;94631.13;;;7.51;98.19
3960;BME280;1994;48.640;8.894;2022-09-29T05:21:49;94626.53;;;7.53;98.10
3960;BME280;1994;48.640;8.894;2022-09-29T05:24:15;94620.28;;;7.44;98.01
3960;BME280;1994;48.640;8.894;2022-09-29T05:26:41;94623.88;;;7.43;98.50
3960;BME280;1994;48.640;8.894;2022-09-29T05:29:07;94638.78;;;7.36;98.00
3960;BME280;1994;48.640;8.894;2022-09-29T05:31:33;94640.06;;;7.33;97.87
3960;BME280;1994;48.640;8.894;2022-09-29T05:33:58;94645.97;;;7.34;97.86
3960;BME280;1994;48.640;8.894;2022-09-29T05:36:24;94644.94;;;7.35;98.27
3960;BME280;1994;48.640;8.894;2022-09-29T05:38:50;94647.56;;;7.40;98.17
3960;BME280;1994;48.640;8.894;2022-09-29T05:41:16;94649.41;;;7.44;98.16
3960;BME280;1994;48.640;8.894;2022-09-29T05:43:49;94650.72;;;7.47;98.00
3960;BME280;1994;48.640;8.894;2022-09-29T05:46:15;94649.91;;;7.46;97.61
3960;BME280;1994;48.640;8.894;2022-09-29T05:48:45;94646.56;;;7.41;97.58
3960;BME280;1994;48.640;8.894;2022-09-29T05:51:18;94650.69;;;7.42;97.36
3960;BME280;1994;48.640;8.894;2022-09-29T05:53:44;94655.59;;;7.43;97.13
3960;BME280;1994;48.640;8.894;2022-09-29T05:56:17;94650.13;;;7.40;97.79
3960;BME280;1994;48.640;8.894;2022-09-29T05:58:46;94659.16;;;7.42;97.89
3960;BME280;1994;48.640;8.894;2022-09-29T06:01:16;94660.75;;;7.48;98.00
3960;BME280;1994;48.640;8.894;2022-09-29T06:03:42;94660.00;;;7.53;97.87
3960;BME280;1994;48.640;8.894;2022-09-29T06:06:15;94662.03;;;7.51;97.98
3960;BME280;1994;48.640;8.894;2022-09-29T06:08:42;94664.63;;;7.51;97.88
3960;BME280;1994;48.640;8.894;2022-09-29T06:11:21;94660.00;;;7.53;97.86
3960;BME280;1994;48.640;8.894;2022-09-29T06:13:49;94670.88;;;7.60;97.11
3960;BME280;1994;48.640;8.894;2022-09-29T06:16:20;94678.63;;;7.65;96.74
3960;BME280;1994;48.640;8.894;2022-09-29T06:18:47;94676.06;;;7.70;96.40
3960;BME280;1994;48.640;8.894;2022-09-29T06:21:21;94670.47;;;7.83;95.93
3960;BME280;1994;48.640;8.894;2022-09-29T06:23:53;94680.28;;;7.86;96.26
3960;BME280;1994;48.640;8.894;2022-09-29T06:26:20;94682.88;;;7.91;96.55
3960;BME280;1994;48.640;8.894;2022-09-29T06:28:46;94676.72;;;7.97;96.70
3960;BME280;1994;48.640;8.894;2022-09-29T06:31:15;94677.00;;;8.00;96.89
3960;BME280;1994;48.640;8.894;2022-09-29T06:33:42;94675.50;;;8.09;96.88
3960;BME280;1994;48.640;8.894;2022-09-29T06:39:00;94684.75;;;8.05;97.34
3960;BME280;1994;48.640;8.894;2022-09-29T06:41:26;94678.81;;;8.05;97.76
3960;BME280;1994;48.640;8.894;2022-09-29T06:43:54;94679.38;;;8.12;97.40
3960;BME280;1994;48.640;8.894;2022-09-29T06:46:20;94679.91;;;8.19;96.83
3960;BME280;1994;48.640;8.894;2022-09-29T06:48:47;94684.06;;;8.25;96.68
3960;BME280;1994;48.640;8.894;2022-09-29T06:51:12;94673.75;;;8.25;97.09
3960;BME280;1994;48.640;8.894;2022-09-29T06:53:39;94683.81;;;8.26;97.74
3960;BME280;1994;48.640;8.894;2022-09-29T06:56:06;94689.72;;;8.22;97.93
3960;BME280;1994;48.640;8.894;2022-09-29T06:58:33;94685.13;;;8.29;98.32
3960;BME280;1994;48.640;8.894;2022-09-29T07:01:01;94677.41;;;8.44;97.58
3960;BME280;1994;48.640;8.894;2022-09-29T07:03:28;94676.91;;;8.47;96.70
3960;BME280;1994;48.640;8.894;2022-09-29T07:05:54;94683.88;;;8.51;96.83
3960;BME280;1994;48.640;8.894;2022-09-29T07:08:20;94680.56;;;8.56;97.06
3960;BME280;1994;48.640;8.894;2022-09-29T07:10:46;94693.47;;;8.61;96.39
3960;BME280;1994;48.640;8.894;2022-09-29T07:13:12;94688.56;;;8.64;96.14
3960;BME280;1994;48.640;8.894;2022-09-29T07:15:38;94686.22;;;8.63;96.40
3960;BME280;1994;48.640;8.894;2022-09-29T07:18:04;94690.88;;;8.66;96.62
3960;BME280;1994;48.640;8.894;2022-09-29T07:20:30;94691.13;;;8.59;97.24
3960;BME280;1994;48.640;8.894;2022-09-29T07:22:57;94689.84;;;8.57;97.46
3960;BME280;1994;48.640;8.894;2022-09-29T07:25:23;94687.75;;;8.54;97.41
3960;BME280;1994;48.640;8.894;2022-09-29T07:27:49;94682.59;;;8.59;97.76
3960;BME280;1994;48.640;8.894;2022-09-29T07:30:17;94683.16;;;8.61;97.52
3960;BME280;1994;48.640;8.894;2022-09-29T07:32:43;94691.16;;;8.69;97.17
3960;BME280;1994;48.640;8.894;2022-09-29T07:35:09;94690.38;;;8.74;96.90
3960;BME280;1994;48.640;8.894;2022-09-29T07:37:35;94695.56;;;8.79;96.42
3960;BME280;1994;48.640;8.894;2022-09-29T07:40:01;94702.78;;;8.87;96.83
3960;BME280;1994;48.640;8.894;2022-09-29T07:42:27;94705.38;;;9.07;96.39
3960;BME280;1994;48.640;8.894;2022-09-29T07:44:54;94709.53;;;9.18;95.45
3960;BME280;1994;48.640;8.894;2022-09-29T07:47:20;94700.75;;;9.34;94.98
3960;BME280;1994;48.640;8.894;2022-09-29T07:49:46;94704.88;;;9.40;93.71
3960;BME280;1994;48.640;8.894;2022-09-29T07:52:13;94709.53;;;9.38;93.84
3960;BME280;1994;48.640;8.894;2022-09-29T07:54:38;94706.94;;;9.43;94.27
3960;BME280;1994;48.640;8.894;2022-09-29T07:57:04;94700.97;;;9.52;93.93
3960;BME280;1994;48.640;8.894;2022-09-29T07:59:30;94704.88;;;9.45;93.94
3960;BME280;1994;48.640;8.894;2022-09-29T08:01:56;94707.94;;;9.47;93.81
3960;BME280;1994;48.640;8.894;2022-09-29T08:04:22;94705.91;;;9.49;93.95
3960;BME280;1994;48.640;8.894;2022-09-29T08:06:49;94704.84;;;9.55;93.53
3960;BME280;1994;48.640;8.894;2022-09-29T08:09:15;94707.94;;;9.57;93.17
3960;BME280;1994;48.640;8.894;2022-09-29T08:11:42;94703.78;;;9.71;92.99
3960;BME280;1994;48.640;8.894;2022-09-29T08:14:09;94704.28;;;9.83;92.59
3960;BME280;1994;48.640;8.894;2022-09-29T08:16:36;94707.88;;;9.97;92.18
3960;BME280;1994;48.640;8.894;2022-09-29T08:19:04;94707.31;;;10.15;91.59
3960;BME280;1994;48.640;8.894;2022-09-29T08:21:31;94712.97;;;10.27;90.70
3960;BME280;1994;48.640;8.894;2022-09-29T08:24:04;94715.03;;;10.35;90.69
3960;BME280;1994;48.640;8.894;2022-09-29T08:26:33;94724.84;;;10.28;90.89
3960;BME280;1994;48.640;8.894;2022-09-29T08:29:01;94720.19;;;10.35;91.62
3960;BME280;1994;48.640;8.894;2022-09-29T08:31:28;94722.22;;;10.43;90.68
3960;BME280;1994;48.640;8.894;2022-09-29T08:33:56;94724.19;;;10.61;90.23
3960;BME280;1994;48.640;8.894;2022-09-29T08:36:23;94731.41;;;10.69;89.83
3960;BME280;1994;48.640;8.894;2022-09-29T08:38:52;94736.63;;;10.59;90.21
3960;BME280;1994;48.640;8.894;2022-09-29T08:44:18;94740.19;;;10.73;89.69
3960;BME280;1994;48.640;8.894;2022-09-29T08:47:01;94741.59;;;10.99;89.90
3960;BME280;1994;48.640;8.894;2022-09-29T08:49:51;94743.50;;;11.22;87.09
3960;BME280;1994;48.640;8.894;2022-09-29T08:52:29;94746.41;;;11.49;85.67
3960;BME280;1994;48.640;8.894;2022-09-29T08:57:45;94747.31;;;12.20;83.05
3960;BME280;1994;48.640;8.894;2022-09-29T09:00:14;94747.16;;;12.35;81.82
3960;BME280;1994;48.640;8.894;2022-09-29T09:08:51;94754.56;;;12.88;78.30
3960;BME280;1994;48.640;8.894;2022-09-29T09:11:55;94749.25;;;13.17;77.52
3960;BME280;1994;48.640;8.894;2022-09-29T09:18:49;94765.44;;;13.14;75.99
3960;BME280;1994;48.640;8.894;2022-09-29T09:21:41;94773.97;;;12.96;76.66
3960;BME280;1994;48.640;8.894;2022-09-29T09:24:24;94774.81;;;12.68;79.07
3960;BME280;1994;48.640;8.894;2022-09-29T09:26:52;94777.41;;;12.68;78.55
3960;BME280;1994;48.640;8.894;2022-09-29T09:29:38;94773.41;;;12.57;78.30
3960;BME280;1994;48.640;8.894;2022-09-29T09:32:24;94772.28;;;12.63;78.87
3960;BME280;1994;48.640;8.894;2022-09-29T09:34:59;94767.66;;;12.60;77.50
3960;BME280;1994;48.640;8.894;2022-09-29T09:37:37;94779.81;;;12.41;77.39
3960;BME280;1994;48.640;8.894;2022-09-29T09:40:16;94768.94;;;12.62;77.71
3960;BME280;1994;48.640;8.894;2022-09-29T09:42:56;94770.03;;;13.17;77.33
3960;BME280;1994;48.640;8.894;2022-09-29T09:45:58;94769.63;;;13.28;75.31
3960;BME280;1994;48.640;8.894;2022-09-29T09:48:49;94765.63;;;12.99;74.07
3960;BME280;1994;48.640;8.894;2022-09-29T09:51:53;94766.31;;;13.23;75.05
3960;BME280;1994;48.640;8.894;2022-09-29T09:54:40;94764.22;;;13.25;73.71
3960;BME280;1994;48.640;8.894;2022-09-29T09:57:46;94768.25;;;12.94;73.95
3960;BME280;1994;48.640;8.894;2022-09-29T10:00:37;94766.63;;;13.03;73.92
3960;BME280;1994;48.640;8.894;2022-09-29T10:03:06;94764.97;;;13.07;73.56
3960;BME280;1994;48.640;8.894;2022-09-29T10:05:40;94765.63;;;12.99;74.59
3960;BME280;1994;48.640;8.894;2022-09-29T10:08:31;94763.78;;;13.18;74.28
3960;BME280;1994;48.640;8.894;2022-09-29T10:10:58;94760.28;;;13.46;72.19
3960;BME280;1994;48.640;8.894;2022-09-29T10:13:27;94769.78;;;13.69;70.51
3960;BME280;1994;48.640;8.894;2022-09-29T10:16:24;94769.47;;;13.89;69.65
3960;BME280;1994;48.640;8.894;2022-09-29T10:18:53;94769.34;;;13.48;68.36
3960;BME280;1994;48.640;8.894;2022-09-29T10:23:52;94764.09;;;13.67;66.29
3960;BME280;1994;48.640;8.894;2022-09-29T10:29:16;94767.59;;;13.76;69.08
3960;BME280;1994;48.640;8.894;2022-09-29T10:31:42;94777.09;;;13.67;70.08
3960;BME280;1994;48.640;8.894;2022-09-29T10:39:44;94773.41;;;13.54;70.60
3960;BME280;1994;48.640;8.894;2022-09-29T10:42:27;94779.38;;;13.55;70.49
3960;BME280;1994;48.640;8.894;2022-09-29T10:45:26;94777.69;;;13.64;69.42
3960;BME280;1994;48.640;8.894;2022-09-29T10:50:28;94766.69;;;13.67;69.68
3960;BME280;1994;48.640;8.894;2022-09-29T10:55:52;94766.81;;;14.21;67.93
3960;BME280;1994;48.640;8.894;2022-09-29T10:58:35;94763.72;;;14.19;66.56
3960;BME280;1994;48.640;8.894;2022-09-29T11:01:13;94767.16;;;14.01;65.18
3960;BME280;1994;48.640;8.894;2022-09-29T11:03:53;94761.38;;;14.04;65.00
3960;BME280;1994;48.640;8.894;2022-09-29T11:06:32;94767.56;;;14.08;67.75
3960;BME280;1994;48.640;8.894;2022-09-29T11:09:27;94771.69;;;14.41;65.65
3960;BME280;1994;48.640;8.894;2022-09-29T11:11:58;94767.94;;;14.15;65.47
3960;BME280;1994;48.640;8.894;2022-09-29T11:14:29;94777.81;;;14.18;66.44
3960;BME280;1994;48.640;8.894;2022-09-29T11:16:58;94774.19;;;14.46;65.70
3960;BME280;1994;48.640;8.894;2022-09-29T11:19:25;94778.59;;;14.32;66.19
3960;BME280;1994;48.640;8.894;2022-09-29T11:28:26;94778.03;;;14.62;60.56
3960;BME280;1994;48.640;8.894;2022-09-29T11:43:10;94782.97;;;14.23;61.84
3960;BME280;1994;48.640;8.894;2022-09-29T11:46:06;94789.25;;;14.03;62.38
3960;BME280;1994;48.640;8.894;2022-09-29T11:58:38;94788.16;;;13.91;62.21
3960;BME280;1994;48.640;8.894;2022-09-29T12:01:17;94787.41;;;14.04;62.32
3960;BME280;1994;48.640;8.894;2022-09-29T12:04:27;94789.94;;;14.09;62.55
3960;BME280;1994;48.640;8.894;2022-09-29T12:10:21;94786.94;;;13.70;63.09
3960;BME280;1994;48.640;8.894;2022-09-29T12:15:54;94776.00;;;14.45;61.42
3960;BME280;1994;48.640;8.894;2022-09-29T12:19:07;94790.78;;;14.63;60.53
3960;BME280;1994;48.640;8.894;2022-09-29T12:21:44;94780.25;;;14.82;60.22
3960;BME280;1994;48.640;8.894;2022-09-29T12:24:36;94775.53;;;14.84;60.33
3960;BME280;1994;48.640;8.894;2022-09-29T12:27:10;94776.28;;;14.98;60.52
3960;BME280;1994;48.640;8.894;2022-09-29T12:29:51;94772.03;;;14.88;60.07
3960;BME280;1994;48.640;8.894;2022-09-29T12:32:33;94770.09;;;14.94;60.49
3960;BME280;1994;48.640;8.894;2022-09-29T12:35:19;94773.88;;;14.88;59.79
3960;BME280;1994;48.640;8.894;2022-09-29T12:41:04;94779.94;;;14.83;59.41
3960;BME280;1994;48.640;8.894;2022-09-29T12:43:48;94780.38;;;14.63;59.91
3960;BME280;1994;48.640;8.894;2022-09-29T12:46:32;94779.22;;;14.56;61.25
3960;BME280;1994;48.640;8.894;2022-09-29T12:49:33;94780.56;;;14.67;60.89
3960;BME280;1994;48.640;8.894;2022-09-29T12:52:13;94775.16;;;14.50;59.33
3960;BME280;1994;48.640;8.894;2022-09-29T12:54:54;94780.06;;;14.51;58.28
3960;BME280;1994;48.640;8.894;2022-09-29T12:57:33;94772.63;;;14.72;58.07
3960;BME280;1994;48.640;8.894;2022-09-29T13:00:09;94782.28;;;14.85;56.81
3960;BME280;1994;48.640;8.894;2022-09-29T13:28:40;94778.34;;;14.47;60.52
3960;BME280;1994;48.640;8.894;2022-09-29T13:31:18;94785.75;;;14.40;60.23
3960;BME280;1994;48.640;8.894;2022-09-29T13:33:48;94780.75;;;14.70;59.34
3960;BME280;1994;48.640;8.894;2022-09-29T13:36:41;94777.16;;;14.80;60.47
3960;BME280;1994;48.640;8.894;2022-09-29T13:39:30;94784.00;;;14.76;60.52
3960;BME280;1994;48.640;8.894;2022-09-29T13:41:56;94784.59;;;14.59;58.94
3960;BME280;1994;48.640;8.894;2022-09-29T13:44:41;94790.38;;;14.70;59.45
3960;BME280;1994;48.640;8.894;2022-09-29T13:47:33;94792.78;;;14.80;59.56
3960;BME280;1994;48.640;8.894;2022-09-29T14:01:03;94802.94;;;14.41;58.49
3960;BME280;1994;48.640;8.894;2022-09-29T14:03:43;94797.16;;;14.44;58.96
3960;BME280;1994;48.640;8.894;2022-09-29T14:06:19;94802.88;;;14.14;59.05
3960;BME280;1994;48.640;8.894;2022-09-29T14:08:59;94802.88;;;14.14;59.01
3960;BME280;1994;48.640;8.894;2022-09-29T14:11:48;94805.25;;;14.29;58.91
3960;BME280;1994;48.640;8.894;2022-09-29T14:14:23;94809.50;;;14.38;58.59
3960;BME280;1994;48.640;8.894;2022-09-29T14:27:47;94818.38;;;14.51;57.55
3960;BME280;1994;48.640;8.894;2022-09-29T14:30:53;94815.28;;;14.35;57.90
3960;BME280;1994;48.640;8.894;2022-09-29T14:33:36;94822.34;;;14.16;57.69
3960;BME280;1994;48.640;8.894;2022-09-29T14:36:12;94824.38;;;14.38;58.80
3960;BME280;1994;48.640;8.894;2022-09-29T14:38:47;94823.13;;;14.17;57.61
3960;BME280;1994;48.640;8.894;2022-09-29T14:41:30;94823.13;;;14.17;57.81
3960;BME280;1994;48.640;8.894;2022-09-29T14:44:08;94833.97;;;14.24;57.28
3960;BME280;1994;48.640;8.894;2022-09-29T14:49:55;94831.84;;;14.26;56.37
3960;BME280;1994;48.640;8.894;2022-09-29T15:02:28;94839.16;;;13.92;57.97
3960;BME280;1994;48.640;8.894;2022-09-29T15:04:55;94841.66;;;14.15;57.63
3960;BME280;1994;48.640;8.894;2022-09-29T15:07:25;94849.41;;;14.20;58.03
3960;BME280;1994;48.640;8.894;2022-09-29T15:09:57;94839.22;;;14.37;58.29
3960;BME280;1994;48.640;8.894;2022-09-29T15:12:29;94836.72;;;14.46;57.65
3960;BME280;1994;48.640;8.894;2022-09-29T15:14:57;94836.53;;;14.56;57.77
3960;BME280;1994;48.640;8.894;2022-09-29T15:17:47;94835.47;;;14.57;56.65
3960;BME280;1994;48.640;8.894;2022-09-29T15:20:24;94838.63;;;14.54;55.48
3960;BME280;1994;48.640;8.894;2022-09-29T15:25:54;94839.91;;;14.56;56.67
3960;BME280;1994;48.640;8.894;2022-09-29T15:28:36;94846.34;;;14.45;56.60
3960;BME280;1994;48.640;8.894;2022-09-29T15:31:07;94843.28;;;14.43;56.62
3960;BME280;1994;48.640;8.894;2022-09-29T15:33:38;94843.06;;;14.26;59.22
3960;BME280;1994;48.640;8.894;2022-09-29T15:36:15;94845.38;;;14.28;60.21
3960;BME280;1994;48.640;8.894;2022-09-29T15:38:42;94846.91;;;14.29;58.96
3960;BME280;1994;48.640;8.894;2022-09-29T15:44:00;94848.81;;;14.23;62.37
3960;BME280;1994;48.640;8.894;2022-09-29T15:49:08;94859.16;;;14.10;64.37
3960;BME280;1994;48.640;8.894;2022-09-29T15:51:34;94857.16;;;14.07;64.39
3960;BME280;1994;48.640;8.894;2022-09-29T15:54:02;94868.72;;;14.01;65.67
3960;BME280;1994;48.640;8.894;2022-09-29T15:56:36;94864.19;;;14.06;65.63
3960;BME280;1994;48.640;8.894;2022-09-29T16:05:09;94862.78;;;13.95;66.54
3960;BME280;1994;48.640;8.894;2022-09-29T16:07:47;94873.94;;;13.82;67.34
3960;BME280;1994;48.640;8.894;2022-09-29T16:10:19;94868.53;;;13.79;68.20
3960;BME280;1994;48.640;8.894;2022-09-29T16:12:55;94881.03;;;13.77;68.31
3960;BME280;1994;48.640;8.894;2022-09-29T16:15:40;94880.06;;;13.73;68.93
3960;BME280;1994;48.640;8.894;2022-09-29T16:20:49;94878.75;;;13.57;69.89
3960;BME280;1994;48.640;8.894;2022-09-29T16:25:45;94883.38;;;13.60;70.64
3960;BME280;1994;48.640;8.894;2022-09-29T16:28:32;94893.78;;;13.60;70.83
3960;BME280;1994;48.640;8.894;2022-09-29T16:31:14;94885.13;;;13.46;70.85
3960;BME280;1994;48.640;8.894;2022-09-29T16:33:44;94889.34;;;13.42;71.21
3960;BME280;1994;48.640;8.894;2022-09-29T16:36:13;94884.91;;;13.42;71.21
3960;BME280;1994;48.640;8.894;2022-09-29T16:38:47;94892.44;;;13.44;71.90
3960;BME280;1994;48.640;8.894;2022-09-29T16:41:37;94903.63;;;13.44;71.23
3960;BME280;1994;48.640;8.894;2022-09-29T16:46:54;94914.94;;;13.35;72.33
3960;BME280;1994;48.640;8.894;2022-09-29T16:49:31;94909.28;;;13.28;72.21
3960;BME280;1994;48.640;8.894;2022-09-29T16:54:44;94920.56;;;13.18;72.85
3960;BME280;1994;48.640;8.894;2022-09-29T16:57:28;94922.97;;;13.15;73.16
3960;BME280;1994;48.640;8.894;2022-09-29T17:00:05;94920.97;;;13.07;73.88
3960;BME280;1994;48.640;8.894;2022-09-29T17:02:35;94924.66;;;13.01;74.32
3960;BME280;1994;48.640;8.894;2022-09-29T17:05:01;94926.31;;;12.92;74.70
3960;BME280;1994;48.640;8.894;2022-09-29T17:07:30;94938.84;;;12.85;75.64
3960;BME280;1994;48.640;8.894;2022-09-29T17:09:58;94944.13;;;12.80;75.94
3960;BME280;1994;48.640;8.894;2022-09-29T17:12:27;94932.72;;;12.76;76.63
3960;BME280;1994;48.640;8.894;2022-09-29T17:14:53;94943.69;;;12.68;75.96
3960;BME280;1994;48.640;8.894;2022-09-29T17:17:22;94948.72;;;12.59;76.21
3960;BME280;1994;48.640;8.894;2022-09-29T17:19:51;94952.56;;;12.62;76.27